createdAt,value
2017-09-10T00:00:29.679Z,7.47
2017-09-10T00:02:59.000Z,8.40
2017-09-10T00:05:27.405Z,8.73
2017-09-10T00:07:55.777Z,8.63
2017-09-10T00:10:24.443Z,8.97
2017-09-10T00:12:52.811Z,7.80
2017-09-10T00:15:21.192Z,9.30
2017-09-10T00:17:49.865Z,9.00
2017-09-10T00:20:20.197Z,9.13
2017-09-10T00:22:48.598Z,8.80
2017-09-10T00:25:17.006Z,9.60
2017-09-10T00:27:45.431Z,9.67
2017-09-10T00:30:14.577Z,8.60
2017-09-10T00:32:43.185Z,9.77
2017-09-10T00:35:11.605Z,9.07
2017-09-10T00:37:39.981Z,9.57
2017-09-10T00:40:08.420Z,9.27
2017-09-10T00:42:36.934Z,8.37
2017-09-10T00:45:05.567Z,11.70
2017-09-10T00:47:34.193Z,9.47
2017-09-10T00:50:03.414Z,10.53
2017-09-10T00:52:31.844Z,9.60
2017-09-10T00:55:00.321Z,9.67
2017-09-10T00:57:28.813Z,12.30
2017-09-10T00:59:57.324Z,12.07
2017-09-10T01:02:25.777Z,10.43
2017-09-10T01:04:54.941Z,12.67
2017-09-10T01:07:23.378Z,13.00
2017-09-10T01:09:52.753Z,11.47
2017-09-10T01:12:21.259Z,10.67
2017-09-10T01:14:49.681Z,13.10
2017-09-10T01:17:18.233Z,12.37
2017-09-10T01:19:46.715Z,12.10
2017-09-10T01:22:15.225Z,12.90
2017-09-10T01:24:43.833Z,12.03
2017-09-10T01:27:12.254Z,14.47
2017-09-10T01:29:40.686Z,22.60
2017-09-10T01:32:09.263Z,22.40
2017-09-10T01:34:37.722Z,28.80
2017-09-10T01:37:06.116Z,36.20
2017-09-10T01:39:34.646Z,33.80
2017-09-10T01:42:03.034Z,26.10
2017-09-10T01:44:31.456Z,19.60
2017-09-10T01:46:59.957Z,19.10
2017-09-10T01:49:28.415Z,17.90
2017-09-10T01:51:56.797Z,18.63
2017-09-10T01:54:25.214Z,18.70
2017-09-10T01:56:53.582Z,17.70
2017-09-10T01:59:22.306Z,20.20
2017-09-10T02:01:51.089Z,18.93
2017-09-10T02:04:20.248Z,16.97
2017-09-10T02:06:48.643Z,16.47
2017-09-10T02:09:17.141Z,16.30
2017-09-10T02:11:45.552Z,16.30
2017-09-10T02:14:14.164Z,17.03
2017-09-10T02:16:42.634Z,15.37
2017-09-10T02:19:11.005Z,13.30
2017-09-10T02:21:39.391Z,13.10
2017-09-10T02:24:08.304Z,12.00
2017-09-10T02:26:36.729Z,13.27
2017-09-10T02:29:05.121Z,14.57
2017-09-10T02:31:33.544Z,13.20
2017-09-10T02:34:01.961Z,14.67
2017-09-10T02:36:30.435Z,13.70
2017-09-10T02:38:59.917Z,14.40
2017-09-10T02:41:29.063Z,15.07
2017-09-10T02:43:57.461Z,18.13
2017-09-10T02:46:25.868Z,16.20
2017-09-10T02:48:55.114Z,15.80
2017-09-10T02:51:23.501Z,14.10
2017-09-10T02:53:52.063Z,12.70
2017-09-10T02:56:20.475Z,14.30
2017-09-10T02:58:48.910Z,15.83
2017-09-10T03:01:18.285Z,18.17
2017-09-10T03:03:46.735Z,17.47
2017-09-10T03:06:15.136Z,15.60
2017-09-10T03:08:43.721Z,17.60
2017-09-10T03:11:12.098Z,14.37
2017-09-10T03:13:40.454Z,13.70
2017-09-10T03:16:08.870Z,13.00
2017-09-10T03:18:37.233Z,13.00
2017-09-10T03:21:05.617Z,13.20
2017-09-10T03:23:34.872Z,13.50
2017-09-10T03:26:03.297Z,14.03
2017-09-10T03:28:31.810Z,13.20
2017-09-10T03:31:00.256Z,11.27
2017-09-10T03:33:28.662Z,12.70
2017-09-10T03:35:57.823Z,12.43
2017-09-10T03:38:26.646Z,12.63
2017-09-10T03:40:55.833Z,13.30
2017-09-10T03:43:24.233Z,13.27
2017-09-10T03:45:53.603Z,13.17
2017-09-10T03:48:21.980Z,12.80
2017-09-10T03:50:50.399Z,11.30
2017-09-10T03:53:19.405Z,11.60
2017-09-10T03:55:47.807Z,12.40
2017-09-10T03:58:16.172Z,10.30
2017-09-10T04:00:44.697Z,9.97
2017-09-10T04:03:13.881Z,10.07
2017-09-10T04:05:43.048Z,9.53
2017-09-10T04:08:11.625Z,8.97
2017-09-10T04:10:40.012Z,11.70
2017-09-10T04:13:08.461Z,10.33
2017-09-10T04:15:37.136Z,9.40
2017-09-10T04:18:05.697Z,9.13
2017-09-10T04:20:34.169Z,10.57
2017-09-10T04:23:02.777Z,10.93
2017-09-10T04:25:31.337Z,13.37
2017-09-10T04:27:59.885Z,12.53
2017-09-10T04:30:28.433Z,14.23
2017-09-10T04:32:56.902Z,10.93
2017-09-10T04:35:25.322Z,9.50
2017-09-10T04:37:53.788Z,8.63
2017-09-10T04:40:23.010Z,10.47
2017-09-10T04:42:51.640Z,11.43
2017-09-10T04:45:20.253Z,12.23
2017-09-10T04:47:48.733Z,11.37
2017-09-10T04:50:17.921Z,12.10
2017-09-10T04:52:46.553Z,10.50
2017-09-10T04:55:14.921Z,10.00
2017-09-10T04:57:43.310Z,10.43
2017-09-10T05:00:11.876Z,11.20
2017-09-10T05:02:40.301Z,9.20
2017-09-10T05:05:08.729Z,8.83
2017-09-10T05:07:37.245Z,8.03
2017-09-10T05:10:05.689Z,8.83
2017-09-10T05:12:34.081Z,8.50
2017-09-10T05:15:02.737Z,6.83
2017-09-10T05:17:31.187Z,5.77
2017-09-10T05:20:00.608Z,6.63
2017-09-10T05:22:30.069Z,7.07
2017-09-10T05:24:58.488Z,4.80
2017-09-10T05:27:26.888Z,6.63
2017-09-10T05:29:55.353Z,7.40
2017-09-10T05:32:23.768Z,7.00
2017-09-10T05:34:52.153Z,6.57
2017-09-10T05:37:20.857Z,6.80
2017-09-10T05:39:49.313Z,6.50
2017-09-10T05:42:17.737Z,6.40
2017-09-10T05:44:46.279Z,7.10
2017-09-10T05:47:14.674Z,6.80
2017-09-10T05:49:43.077Z,6.60
2017-09-10T05:52:11.582Z,6.37
2017-09-10T05:54:40.784Z,6.87
2017-09-10T05:57:09.215Z,5.63
2017-09-10T05:59:37.728Z,6.20
2017-09-10T06:02:06.121Z,7.47
2017-09-10T06:04:34.609Z,7.30
2017-09-10T06:07:03.904Z,6.57
2017-09-10T06:09:33.038Z,7.90
2017-09-10T06:12:01.453Z,7.23
2017-09-10T06:14:30.057Z,8.00
2017-09-10T06:16:59.198Z,7.20
2017-09-10T06:19:27.644Z,6.83
2017-09-10T06:21:57.343Z,6.57
2017-09-10T06:24:25.810Z,6.97
2017-09-10T06:26:54.287Z,4.70
2017-09-10T06:29:22.699Z,5.70
2017-09-10T06:31:52.032Z,7.00
2017-09-10T06:34:20.442Z,7.97
2017-09-10T06:36:49.199Z,8.20
2017-09-10T06:39:17.643Z,6.50
2017-09-10T06:41:46.809Z,6.10
2017-09-10T06:44:15.543Z,5.83
2017-09-10T06:46:43.958Z,7.80
2017-09-10T06:49:12.481Z,6.67
2017-09-10T06:51:40.903Z,6.23
2017-09-10T06:54:09.292Z,7.80
2017-09-10T06:56:38.009Z,5.13
2017-09-10T06:59:06.711Z,6.60
2017-09-10T07:01:35.095Z,5.00
2017-09-10T07:04:04.273Z,6.00
2017-09-10T07:06:32.893Z,6.20
2017-09-10T07:09:02.070Z,4.80
2017-09-10T07:11:31.259Z,7.00
2017-09-10T07:13:59.960Z,6.40
2017-09-10T07:16:29.139Z,6.07
2017-09-10T07:18:57.541Z,5.93
2017-09-10T07:21:26.157Z,6.20
2017-09-10T07:23:54.719Z,5.30
2017-09-10T07:26:23.087Z,5.00
2017-09-10T07:28:51.670Z,4.53
2017-09-10T07:31:20.816Z,6.50
2017-09-10T07:33:49.199Z,6.37
2017-09-10T07:36:18.097Z,5.87
2017-09-10T07:38:46.469Z,5.20
2017-09-10T07:41:14.837Z,4.83
2017-09-10T07:43:43.447Z,5.10
2017-09-10T07:46:12.015Z,5.87
2017-09-10T07:48:40.370Z,5.80
2017-09-10T07:51:08.884Z,6.20
2017-09-10T07:53:37.259Z,6.30
2017-09-10T07:56:05.676Z,5.30
2017-09-10T07:58:35.183Z,6.63
2017-09-10T08:01:03.585Z,5.67
2017-09-10T08:03:31.982Z,7.00
2017-09-10T08:06:00.479Z,6.63
2017-09-10T08:08:28.854Z,7.70
2017-09-10T08:10:57.338Z,6.97
2017-09-10T08:13:26.106Z,5.53
2017-09-10T08:15:54.524Z,6.83
2017-09-10T08:18:22.927Z,5.77
2017-09-10T08:20:51.391Z,6.13
2017-09-10T08:23:19.829Z,5.40
2017-09-10T08:25:48.305Z,4.87
2017-09-10T08:28:17.017Z,5.77
2017-09-10T08:30:45.444Z,5.57
2017-09-10T08:33:13.822Z,6.40
2017-09-10T08:35:43.502Z,5.07
2017-09-10T08:38:11.869Z,5.20
2017-09-10T08:40:40.260Z,4.70
2017-09-10T08:43:09.639Z,5.27
2017-09-10T08:45:38.051Z,4.70
2017-09-10T08:48:07.189Z,5.03
2017-09-10T08:50:35.687Z,4.70
2017-09-10T08:53:04.050Z,4.97
2017-09-10T08:55:32.462Z,5.17
2017-09-10T08:58:01.026Z,4.60
2017-09-10T09:00:29.462Z,4.90
2017-09-10T09:02:58.602Z,4.97
2017-09-10T09:05:27.540Z,5.40
2017-09-10T09:07:56.728Z,3.83
2017-09-10T09:10:25.918Z,5.00
2017-09-10T09:12:54.357Z,5.00
2017-09-10T09:15:22.772Z,4.07
2017-09-10T09:17:51.144Z,3.73
2017-09-10T09:20:19.602Z,3.23
2017-09-10T09:22:47.978Z,2.07
2017-09-10T09:25:16.570Z,2.20
2017-09-10T09:27:45.345Z,2.90
2017-09-10T09:30:13.828Z,3.50
2017-09-10T09:32:42.248Z,3.70
2017-09-10T09:35:10.690Z,3.13
2017-09-10T09:37:39.072Z,3.27
2017-09-10T09:40:07.471Z,3.27
2017-09-10T09:42:36.034Z,3.50
2017-09-10T09:45:05.207Z,3.67
2017-09-10T09:47:33.622Z,2.80
2017-09-10T09:50:02.318Z,4.60
2017-09-10T09:52:30.825Z,3.90
2017-09-10T09:54:59.973Z,2.60
2017-09-10T09:57:28.519Z,3.97
2017-09-10T09:59:56.942Z,3.07
2017-09-10T10:02:25.366Z,3.27
2017-09-10T10:04:54.782Z,4.30
2017-09-10T10:07:23.151Z,3.63
2017-09-10T10:09:52.323Z,2.60
2017-09-10T10:12:20.780Z,4.00
2017-09-10T10:14:49.559Z,3.03
2017-09-10T10:17:18.025Z,2.70
2017-09-10T10:19:46.452Z,3.77
2017-09-10T10:22:14.851Z,3.83
2017-09-10T10:24:43.212Z,2.90
2017-09-10T10:27:12.569Z,2.30
2017-09-10T10:29:41.384Z,2.70
2017-09-10T10:32:09.845Z,2.67
2017-09-10T10:34:38.303Z,2.03
2017-09-10T10:37:06.676Z,2.17
2017-09-10T10:39:35.920Z,1.40
2017-09-10T10:42:04.409Z,1.90
2017-09-10T10:44:32.821Z,1.70
2017-09-10T10:47:01.981Z,1.33
2017-09-10T10:49:30.423Z,2.30
2017-09-10T10:51:58.841Z,1.53
2017-09-10T10:54:27.228Z,1.00
2017-09-10T10:56:55.937Z,1.80
2017-09-10T10:59:24.322Z,2.67
2017-09-10T11:01:53.469Z,2.03
2017-09-10T11:04:23.110Z,2.10
2017-09-10T11:06:51.487Z,2.57
2017-09-10T11:09:19.874Z,2.00
2017-09-10T11:11:48.696Z,2.47
2017-09-10T11:14:17.098Z,1.73
2017-09-10T11:16:45.513Z,2.00
2017-09-10T11:19:15.243Z,2.00
2017-09-10T11:21:44.387Z,2.33
2017-09-10T11:24:12.768Z,1.80
2017-09-10T11:26:41.169Z,2.30
2017-09-10T11:29:10.626Z,1.73
2017-09-10T11:31:39.061Z,2.00
2017-09-10T11:34:07.503Z,1.60
2017-09-10T11:36:35.890Z,1.60
2017-09-10T11:39:04.352Z,1.57
2017-09-10T11:41:32.923Z,1.50
2017-09-10T11:44:01.311Z,1.10
2017-09-10T11:46:29.672Z,1.53
2017-09-10T11:48:58.908Z,1.70
2017-09-10T11:51:28.128Z,1.20
2017-09-10T11:53:56.700Z,1.33
2017-09-10T11:56:25.295Z,1.30
2017-09-10T11:58:53.674Z,1.07
2017-09-10T12:01:22.050Z,1.10
2017-09-10T12:03:50.475Z,1.07
2017-09-10T12:06:18.948Z,1.37
2017-09-10T12:08:47.401Z,1.20
2017-09-10T12:11:16.000Z,1.87
2017-09-10T12:13:45.168Z,1.60
2017-09-10T12:16:13.638Z,2.13
2017-09-10T12:18:42.336Z,1.63
2017-09-10T12:21:10.774Z,1.50
2017-09-10T12:23:39.178Z,1.70
2017-09-10T12:26:07.646Z,1.23
2017-09-10T12:28:36.031Z,1.40
2017-09-10T12:31:04.473Z,1.60
2017-09-10T12:33:33.199Z,1.80
2017-09-10T12:36:02.384Z,1.90
2017-09-10T12:38:31.655Z,1.27
2017-09-10T12:41:00.233Z,1.57
2017-09-10T12:43:29.402Z,1.97
2017-09-10T12:45:57.796Z,1.50
2017-09-10T12:48:26.653Z,1.77
2017-09-10T12:50:55.079Z,1.60
2017-09-10T12:53:23.460Z,1.43
2017-09-10T12:55:53.156Z,1.47
2017-09-10T12:58:22.331Z,1.70
2017-09-10T13:00:50.736Z,1.70
2017-09-10T13:03:19.405Z,1.77
2017-09-10T13:05:47.769Z,1.50
2017-09-10T13:08:16.211Z,1.53
2017-09-10T13:10:44.867Z,1.60
2017-09-10T13:13:14.067Z,2.07
2017-09-10T13:15:43.246Z,1.40
2017-09-10T13:18:11.744Z,1.20
2017-09-10T13:20:41.081Z,1.83
2017-09-10T13:23:09.490Z,1.50
2017-09-10T13:25:38.008Z,1.63
2017-09-10T13:28:07.163Z,1.80
2017-09-10T13:30:35.602Z,1.70
2017-09-10T13:33:04.130Z,1.47
2017-09-10T13:35:32.707Z,1.57
2017-09-10T13:38:01.128Z,1.73
2017-09-10T13:40:30.470Z,1.40
2017-09-10T13:42:58.836Z,1.30
2017-09-10T13:45:27.370Z,1.10
2017-09-10T13:47:56.082Z,1.47
2017-09-10T13:50:24.499Z,1.57
2017-09-10T13:52:52.901Z,1.17
2017-09-10T13:55:21.752Z,1.30
2017-09-10T13:57:50.230Z,1.13
2017-09-10T14:00:18.620Z,1.30
2017-09-10T14:02:47.437Z,1.10
2017-09-10T14:05:15.820Z,1.60
2017-09-10T14:07:44.344Z,1.60
2017-09-10T14:10:13.623Z,0.93
2017-09-10T14:12:42.784Z,1.00
2017-09-10T14:15:11.186Z,1.30
2017-09-10T14:17:39.804Z,0.83
2017-09-10T14:20:08.954Z,1.23
2017-09-10T14:22:37.377Z,1.03
2017-09-10T14:25:05.790Z,1.20
2017-09-10T14:27:34.251Z,1.20
2017-09-10T14:30:02.679Z,0.80
2017-09-10T14:32:31.205Z,0.93
2017-09-10T14:34:59.867Z,0.93
2017-09-10T14:37:29.337Z,1.47
2017-09-10T14:39:58.163Z,2.23
2017-09-10T14:42:27.350Z,1.20
2017-09-10T14:44:55.736Z,0.80
2017-09-10T14:47:24.472Z,1.23
2017-09-10T14:49:52.843Z,1.13
2017-09-10T14:52:21.257Z,1.00
2017-09-10T14:54:50.439Z,1.27
2017-09-10T14:57:18.807Z,0.90
2017-09-10T14:59:47.267Z,1.40
2017-09-10T15:02:15.843Z,1.07
2017-09-10T15:04:45.084Z,1.20
2017-09-10T15:07:13.522Z,0.90
2017-09-10T15:09:41.998Z,1.00
2017-09-10T15:12:10.404Z,1.07
2017-09-10T15:14:38.847Z,1.07
2017-09-10T15:17:08.059Z,1.80
2017-09-10T15:19:37.181Z,1.07
2017-09-10T15:22:05.561Z,1.30
2017-09-10T15:24:34.141Z,0.93
2017-09-10T15:27:02.499Z,1.10
2017-09-10T15:29:31.662Z,1.17
2017-09-10T15:32:00.089Z,1.53
2017-09-10T15:34:28.504Z,0.90
2017-09-10T15:36:56.928Z,1.20
2017-09-10T15:39:25.797Z,0.90
2017-09-10T15:41:54.192Z,0.90
2017-09-10T15:44:22.588Z,1.40
2017-09-10T15:46:51.209Z,1.30
2017-09-10T15:49:19.642Z,1.07
2017-09-10T15:51:48.020Z,0.90
2017-09-10T15:54:16.726Z,0.90
2017-09-10T15:56:45.094Z,1.33
2017-09-10T15:59:13.471Z,1.40
2017-09-10T16:01:41.998Z,1.43
2017-09-10T16:04:10.420Z,1.20
2017-09-10T16:06:38.809Z,1.43
2017-09-10T16:09:07.456Z,1.47
2017-09-10T16:11:35.840Z,1.47
2017-09-10T16:14:04.259Z,1.37
2017-09-10T16:16:32.670Z,1.10
2017-09-10T16:19:01.063Z,1.23
2017-09-10T16:21:29.468Z,1.23
2017-09-10T16:23:58.134Z,0.97
2017-09-10T16:26:26.593Z,1.40
2017-09-10T16:28:55.148Z,1.90
2017-09-10T16:31:23.733Z,1.90
2017-09-10T16:33:52.111Z,1.67
2017-09-10T16:36:20.480Z,2.10
2017-09-10T16:38:49.672Z,1.43
2017-09-10T16:41:18.151Z,1.97
2017-09-10T16:43:47.300Z,2.70
2017-09-10T16:46:16.198Z,3.00
2017-09-10T16:48:44.671Z,2.67
2017-09-10T16:51:13.124Z,2.30
2017-09-10T16:53:41.747Z,3.20
2017-09-10T16:56:10.164Z,2.70
2017-09-10T16:58:38.559Z,3.40
2017-09-10T17:01:07.297Z,3.73
2017-09-10T17:03:35.757Z,3.90
2017-09-10T17:06:04.195Z,4.03
2017-09-10T17:08:32.669Z,3.60
2017-09-10T17:11:01.080Z,3.50
2017-09-10T17:13:29.486Z,3.20
2017-09-10T17:15:58.279Z,3.37
2017-09-10T17:18:27.465Z,4.23
2017-09-10T17:20:55.848Z,4.13
2017-09-10T17:23:24.500Z,3.70
2017-09-10T17:25:53.540Z,3.30
2017-09-10T17:28:22.845Z,4.00
2017-09-10T17:30:51.630Z,3.83
2017-09-10T17:33:20.060Z,4.10
2017-09-10T17:35:48.453Z,3.30
2017-09-10T17:38:16.902Z,3.93
2017-09-10T17:40:45.361Z,3.63
2017-09-10T17:43:14.068Z,3.90
2017-09-10T17:45:42.750Z,4.13
2017-09-10T17:48:11.889Z,3.60
2017-09-10T17:50:41.112Z,4.40
2017-09-10T17:53:09.613Z,4.30
2017-09-10T17:55:38.818Z,5.30
2017-09-10T17:58:07.216Z,4.50
2017-09-10T18:00:35.731Z,6.00
2017-09-10T18:03:04.181Z,4.80
2017-09-10T18:05:32.671Z,5.37
2017-09-10T18:08:01.432Z,4.87
2017-09-10T18:10:30.681Z,5.50
2017-09-10T18:12:59.136Z,6.27
2017-09-10T18:15:28.426Z,4.80
2017-09-10T18:17:57.025Z,4.80
2017-09-10T18:20:25.427Z,5.50
2017-09-10T18:22:54.854Z,4.97
2017-09-10T18:25:23.249Z,4.70
2017-09-10T18:27:52.427Z,5.33
2017-09-10T18:30:20.914Z,5.03
2017-09-10T18:32:49.311Z,4.37
2017-09-10T18:35:17.773Z,6.17
2017-09-10T18:37:46.559Z,5.53
2017-09-10T18:40:15.770Z,6.00
2017-09-10T18:42:44.425Z,5.67
2017-09-10T18:45:13.057Z,6.00
2017-09-10T18:47:41.457Z,6.17
2017-09-10T18:50:10.153Z,6.13
2017-09-10T18:52:39.316Z,7.87
2017-09-10T18:55:07.836Z,5.97
2017-09-10T18:57:36.872Z,6.40
2017-09-10T19:00:06.158Z,5.60
2017-09-10T19:02:34.603Z,6.27
2017-09-10T19:05:03.135Z,8.63
2017-09-10T19:07:32.704Z,5.17
2017-09-10T19:10:01.077Z,7.27
2017-09-10T19:12:29.482Z,6.90
2017-09-10T19:14:58.069Z,6.30
2017-09-10T19:17:26.519Z,6.70
2017-09-10T19:19:54.946Z,5.80
2017-09-10T19:22:25.122Z,6.30
2017-09-10T19:24:53.510Z,5.70
2017-09-10T19:27:21.964Z,6.73
2017-09-10T19:29:50.461Z,5.40
2017-09-10T19:32:18.896Z,5.70
2017-09-10T19:34:48.975Z,6.23
2017-09-10T19:37:17.437Z,7.03
2017-09-10T19:39:45.812Z,6.47
2017-09-10T19:42:14.257Z,5.77
2017-09-10T19:44:42.821Z,7.03
2017-09-10T19:47:12.407Z,6.60
2017-09-10T19:49:40.844Z,4.77
2017-09-10T19:52:09.397Z,5.40
2017-09-10T19:54:38.599Z,5.80
2017-09-10T19:57:08.007Z,5.50
2017-09-10T19:59:38.327Z,4.17
2017-09-10T20:02:07.482Z,7.00
2017-09-10T20:04:35.894Z,6.50
2017-09-10T20:07:04.302Z,6.23
2017-09-10T20:09:32.684Z,5.80
2017-09-10T20:12:01.085Z,6.73
2017-09-10T20:14:29.825Z,6.27
2017-09-10T20:16:59.033Z,5.27
2017-09-10T20:19:27.461Z,5.73
2017-09-10T20:21:57.349Z,6.00
2017-09-10T20:24:25.740Z,5.83
2017-09-10T20:26:54.127Z,6.40
2017-09-10T20:29:22.726Z,5.00
2017-09-10T20:31:51.154Z,5.23
2017-09-10T20:34:19.596Z,5.37
2017-09-10T20:36:49.022Z,4.07
2017-09-10T20:39:18.193Z,4.17
2017-09-10T20:41:46.686Z,4.53
2017-09-10T20:44:15.460Z,5.13
2017-09-10T20:46:43.866Z,5.33
2017-09-10T20:49:13.221Z,4.47
2017-09-10T20:51:41.629Z,4.20
2017-09-10T20:54:10.000Z,4.20
2017-09-10T20:56:38.388Z,5.03
2017-09-10T20:59:06.876Z,4.70
2017-09-10T21:01:35.256Z,5.10
2017-09-10T21:04:04.395Z,4.23
2017-09-10T21:06:33.119Z,5.10
2017-09-10T21:09:01.494Z,4.90
2017-09-10T21:11:29.913Z,5.23
2017-09-10T21:13:58.520Z,3.80
2017-09-10T21:16:27.162Z,5.10
2017-09-10T21:18:56.412Z,5.20
2017-09-10T21:21:24.853Z,4.73
2017-09-10T21:23:54.321Z,5.53
2017-09-10T21:26:22.764Z,5.10
2017-09-10T21:28:51.527Z,4.17
2017-09-10T21:31:20.675Z,4.77
2017-09-10T21:33:49.150Z,4.73
2017-09-10T21:36:17.727Z,5.40
2017-09-10T21:38:46.120Z,5.37
2017-09-10T21:41:14.542Z,4.70
2017-09-10T21:43:44.123Z,3.47
2017-09-10T21:46:12.529Z,3.97
2017-09-10T21:48:41.809Z,5.57
2017-09-10T21:51:10.550Z,5.03
2017-09-10T21:53:38.927Z,5.00
2017-09-10T21:56:07.293Z,4.33
2017-09-10T21:58:35.723Z,3.80
2017-09-10T22:01:04.186Z,4.73
2017-09-10T22:03:32.607Z,4.30
2017-09-10T22:06:01.996Z,4.70
2017-09-10T22:08:30.371Z,5.00
2017-09-10T22:10:58.771Z,4.57
2017-09-10T22:13:28.674Z,4.97
2017-09-10T22:15:57.050Z,3.57
2017-09-10T22:18:26.187Z,3.73
2017-09-10T22:20:54.940Z,4.20
2017-09-10T22:23:23.319Z,4.10
2017-09-10T22:25:52.492Z,4.67
2017-09-10T22:28:20.896Z,4.53
2017-09-10T22:30:50.028Z,5.20
2017-09-10T22:33:18.392Z,4.23
2017-09-10T22:35:47.158Z,4.27
2017-09-10T22:38:16.495Z,4.40
2017-09-10T22:40:44.933Z,4.10
2017-09-10T22:43:13.380Z,3.07
2017-09-10T22:45:41.758Z,3.37
2017-09-10T22:48:10.141Z,3.17
2017-09-10T22:50:38.779Z,4.70
2017-09-10T22:53:07.290Z,3.80
2017-09-10T22:55:35.665Z,3.77
2017-09-10T22:58:05.077Z,6.03
2017-09-10T23:00:33.442Z,3.30
2017-09-10T23:03:01.968Z,4.00
2017-09-10T23:05:30.553Z,2.93
2017-09-10T23:07:58.977Z,3.90
2017-09-10T23:10:27.361Z,3.73
2017-09-10T23:12:56.095Z,3.50
2017-09-10T23:15:24.462Z,3.20
2017-09-10T23:17:52.862Z,3.27
2017-09-10T23:20:21.273Z,3.30
2017-09-10T23:22:49.715Z,2.73
2017-09-10T23:25:18.086Z,3.00
2017-09-10T23:27:46.989Z,2.83
2017-09-10T23:30:15.365Z,3.07
2017-09-10T23:32:43.764Z,3.03
2017-09-10T23:35:13.108Z,3.10
2017-09-10T23:37:41.475Z,2.83
2017-09-10T23:40:09.848Z,3.13
2017-09-10T23:42:38.243Z,2.67
2017-09-10T23:45:06.654Z,2.87
2017-09-10T23:47:35.031Z,3.70
2017-09-10T23:50:03.738Z,2.70
2017-09-10T23:52:32.175Z,2.43
2017-09-10T23:55:00.758Z,2.97
2017-09-10T23:57:29.386Z,2.03
2017-09-10T23:59:58.535Z,2.83
